createdAt,value
2017-08-18T00:01:37.161Z,6.60
2017-08-18T00:04:05.334Z,6.63
2017-08-18T00:06:33.465Z,10.17
2017-08-18T00:09:01.555Z,6.10
2017-08-18T00:11:30.696Z,5.20
2017-08-18T00:13:58.835Z,9.47
2017-08-18T00:16:29.960Z,5.73
2017-08-18T00:18:59.264Z,13.80
2017-08-18T00:21:27.386Z,9.30
2017-08-18T00:23:55.519Z,5.50
2017-08-18T00:26:23.598Z,5.87
2017-08-18T00:28:57.039Z,7.17
2017-08-18T00:31:26.059Z,7.10
2017-08-18T00:33:56.543Z,7.63
2017-08-18T00:36:24.719Z,3.90
2017-08-18T00:38:52.928Z,6.00
2017-08-18T00:41:21.061Z,9.03
2017-08-18T00:43:50.773Z,4.50
2017-08-18T00:46:19.852Z,4.50
2017-08-18T00:48:49.908Z,4.93
2017-08-18T00:51:21.899Z,7.77
2017-08-18T00:53:49.996Z,4.00
2017-08-18T00:56:21.238Z,3.67
2017-08-18T00:58:49.420Z,8.60
2017-08-18T01:01:17.730Z,6.80
2017-08-18T01:03:46.058Z,5.53
2017-08-18T01:06:14.296Z,5.40
2017-08-18T01:08:43.181Z,6.57
2017-08-18T01:11:11.299Z,4.60
2017-08-18T01:13:40.242Z,7.30
2017-08-18T01:16:08.479Z,5.27
2017-08-18T01:18:36.573Z,5.30
2017-08-18T01:21:04.676Z,4.80
2017-08-18T01:23:32.779Z,8.30
2017-08-18T01:26:00.971Z,5.03
2017-08-18T01:28:29.399Z,11.10
2017-08-18T01:30:57.500Z,5.33
2017-08-18T01:33:25.584Z,7.43
2017-08-18T01:35:54.195Z,4.27
2017-08-18T01:38:24.303Z,6.50
2017-08-18T01:40:52.408Z,4.90
2017-08-18T01:43:20.950Z,7.57
2017-08-18T01:45:49.086Z,7.00
2017-08-18T01:48:17.192Z,4.50
2017-08-18T01:50:45.381Z,5.40
2017-08-18T01:53:15.471Z,8.53
2017-08-18T01:55:43.569Z,12.40
2017-08-18T01:58:12.752Z,6.43
2017-08-18T02:00:41.823Z,5.73
2017-08-18T02:03:10.692Z,6.13
2017-08-18T02:05:38.860Z,7.13
2017-08-18T02:08:06.943Z,10.63
2017-08-18T02:10:35.983Z,5.10
2017-08-18T02:13:04.103Z,5.77
2017-08-18T02:15:38.269Z,5.33
2017-08-18T02:18:06.432Z,9.60
2017-08-18T02:20:36.558Z,7.07
2017-08-18T02:23:09.450Z,5.80
2017-08-18T02:25:39.611Z,10.90
2017-08-18T02:28:07.709Z,4.83
2017-08-18T02:30:36.580Z,5.30
2017-08-18T02:33:04.652Z,5.73
2017-08-18T02:35:36.025Z,7.00
2017-08-18T02:38:04.869Z,4.63
2017-08-18T02:40:32.955Z,4.63
2017-08-18T02:43:01.079Z,6.80
2017-08-18T02:45:29.160Z,3.90
2017-08-18T02:47:57.283Z,10.47
2017-08-18T02:50:25.363Z,6.97
2017-08-18T02:52:53.447Z,6.23
2017-08-18T02:55:21.554Z,11.23
2017-08-18T02:57:49.643Z,6.17
2017-08-18T03:00:17.751Z,17.73
2017-08-18T03:02:46.750Z,13.07
2017-08-18T03:05:14.844Z,10.20
2017-08-18T03:07:42.927Z,6.87
2017-08-18T03:10:11.000Z,7.20
2017-08-18T03:12:39.102Z,6.57
2017-08-18T03:15:07.187Z,6.10
2017-08-18T03:17:35.288Z,6.83
2017-08-18T03:20:03.358Z,7.63
2017-08-18T03:22:31.465Z,11.87
2017-08-18T03:24:59.583Z,10.00
2017-08-18T03:27:27.680Z,9.60
2017-08-18T03:29:56.238Z,9.23
2017-08-18T03:32:24.336Z,10.63
2017-08-18T03:34:52.445Z,9.30
2017-08-18T03:37:20.532Z,5.30
2017-08-18T03:39:48.626Z,4.70
2017-08-18T03:42:16.746Z,5.43
2017-08-18T03:44:44.830Z,8.60
2017-08-18T03:47:12.942Z,9.37
2017-08-18T03:49:42.075Z,7.00
2017-08-18T03:52:10.172Z,7.37
2017-08-18T03:54:38.271Z,10.93
2017-08-18T03:57:06.363Z,10.40
2017-08-18T03:59:34.447Z,15.60
2017-08-18T04:02:02.559Z,12.33
2017-08-18T04:04:30.660Z,8.27
2017-08-18T04:06:58.767Z,11.43
2017-08-18T04:09:26.851Z,10.83
2017-08-18T04:11:54.959Z,7.23
2017-08-18T04:14:23.043Z,8.57
2017-08-18T04:16:51.351Z,11.90
2017-08-18T04:19:19.443Z,8.97
2017-08-18T04:21:47.521Z,11.33
2017-08-18T04:24:15.625Z,8.33
2017-08-18T04:26:43.714Z,16.50
2017-08-18T04:29:11.847Z,14.20
2017-08-18T04:31:39.932Z,9.30
2017-08-18T04:34:08.008Z,11.87
2017-08-18T04:36:36.115Z,10.00
2017-08-18T04:39:04.211Z,10.47
2017-08-18T04:41:33.096Z,9.30
2017-08-18T04:44:01.968Z,10.63
2017-08-18T04:46:30.034Z,8.20
2017-08-18T04:48:58.124Z,10.67
2017-08-18T04:51:26.999Z,13.80
2017-08-18T04:53:55.091Z,10.60
2017-08-18T04:56:23.196Z,16.33
2017-08-18T04:58:51.279Z,12.87
2017-08-18T05:01:19.386Z,12.83
2017-08-18T05:03:47.487Z,12.53
2017-08-18T05:06:16.364Z,7.60
2017-08-18T05:08:44.462Z,11.20
2017-08-18T05:11:12.538Z,8.20
2017-08-18T05:13:40.642Z,19.23
2017-08-18T05:16:08.752Z,13.40
2017-08-18T05:18:36.864Z,10.67
2017-08-18T05:21:04.971Z,18.83
2017-08-18T05:23:33.049Z,9.33
2017-08-18T05:26:01.152Z,9.63
2017-08-18T05:28:32.864Z,9.17
2017-08-18T05:31:00.935Z,17.17
2017-08-18T05:33:29.016Z,7.63
2017-08-18T05:35:57.205Z,8.97
2017-08-18T05:38:25.275Z,8.83
2017-08-18T05:40:53.386Z,8.30
2017-08-18T05:43:21.474Z,8.07
2017-08-18T05:45:49.574Z,10.33
2017-08-18T05:48:17.672Z,9.03
2017-08-18T05:50:46.822Z,10.70
2017-08-18T05:53:14.912Z,10.30
2017-08-18T05:55:43.010Z,10.33
2017-08-18T05:58:11.092Z,11.37
2017-08-18T06:00:39.199Z,14.20
2017-08-18T06:03:07.310Z,10.50
2017-08-18T06:05:35.397Z,13.73
2017-08-18T06:08:03.493Z,11.60
2017-08-18T06:10:32.347Z,12.00
2017-08-18T06:13:00.443Z,11.37
2017-08-18T06:15:28.540Z,10.37
2017-08-18T06:17:56.624Z,11.57
2017-08-18T06:20:24.727Z,12.90
2017-08-18T06:22:52.820Z,14.10
2017-08-18T06:25:20.915Z,13.77
2017-08-18T06:27:48.995Z,10.87
2017-08-18T06:30:17.113Z,13.90
2017-08-18T06:32:45.305Z,15.50
2017-08-18T06:35:13.410Z,11.37
2017-08-18T06:37:41.487Z,14.17
2017-08-18T06:40:09.570Z,8.83
2017-08-18T06:42:37.676Z,11.00
2017-08-18T06:45:05.756Z,10.73
2017-08-18T06:47:33.855Z,12.70
2017-08-18T06:50:01.961Z,12.40
2017-08-18T06:52:30.077Z,8.97
2017-08-18T06:54:58.172Z,11.27
2017-08-18T06:57:27.178Z,14.33
2017-08-18T06:59:55.283Z,10.93
2017-08-18T07:02:23.389Z,11.97
2017-08-18T07:04:51.472Z,9.93
2017-08-18T07:07:19.560Z,10.70
2017-08-18T07:09:47.669Z,10.03
2017-08-18T07:12:15.756Z,11.40
2017-08-18T07:14:43.851Z,12.13
2017-08-18T07:17:11.941Z,9.67
2017-08-18T07:19:40.053Z,10.87
2017-08-18T07:22:08.128Z,8.80
2017-08-18T07:24:36.223Z,9.07
2017-08-18T07:27:04.314Z,13.30
2017-08-18T07:29:32.407Z,12.90
2017-08-18T07:32:00.511Z,12.80
2017-08-18T07:34:28.591Z,11.23
2017-08-18T07:36:56.728Z,19.23
2017-08-18T07:39:24.826Z,11.77
2017-08-18T07:41:53.934Z,17.53
2017-08-18T07:44:22.040Z,10.60
2017-08-18T07:46:50.127Z,13.30
2017-08-18T07:49:18.231Z,12.70
2017-08-18T07:51:46.318Z,11.70
2017-08-18T07:54:14.430Z,12.20
2017-08-18T07:56:42.515Z,14.80
2017-08-18T07:59:10.595Z,15.47
2017-08-18T08:01:38.703Z,10.30
2017-08-18T08:04:06.775Z,14.00
2017-08-18T08:06:34.884Z,12.90
2017-08-18T08:09:02.983Z,14.13
2017-08-18T08:11:31.091Z,18.07
2017-08-18T08:13:59.185Z,18.20
2017-08-18T08:16:27.286Z,19.17
2017-08-18T08:18:55.391Z,22.23
2017-08-18T08:21:23.488Z,26.20
2017-08-18T08:23:51.608Z,26.00
2017-08-18T08:26:19.732Z,23.57
2017-08-18T08:28:47.814Z,24.20
2017-08-18T08:31:15.929Z,29.90
2017-08-18T08:33:44.036Z,27.60
2017-08-18T08:36:12.128Z,26.30
2017-08-18T08:38:40.248Z,26.77
2017-08-18T08:41:09.050Z,29.80
2017-08-18T08:43:37.162Z,29.80
2017-08-18T08:46:05.240Z,29.60
2017-08-18T08:48:33.351Z,26.40
2017-08-18T08:51:02.395Z,24.97
2017-08-18T08:53:30.494Z,27.87
2017-08-18T08:55:58.595Z,30.73
2017-08-18T08:58:29.905Z,29.67
2017-08-18T09:00:58.015Z,24.10
2017-08-18T09:03:26.107Z,23.10
2017-08-18T09:05:54.232Z,22.37
2017-08-18T09:08:22.351Z,22.70
2017-08-18T09:10:51.347Z,22.30
2017-08-18T09:13:19.455Z,21.20
2017-08-18T09:15:47.641Z,25.87
2017-08-18T09:18:15.745Z,22.03
2017-08-18T09:20:43.814Z,19.30
2017-08-18T09:23:11.930Z,22.47
2017-08-18T09:25:40.029Z,27.10
2017-08-18T09:28:08.136Z,22.33
2017-08-18T09:30:36.234Z,26.40
2017-08-18T09:33:04.334Z,29.37
2017-08-18T09:35:32.428Z,25.70
2017-08-18T09:38:00.539Z,26.33
2017-08-18T09:40:28.618Z,25.60
2017-08-18T09:42:56.728Z,23.67
2017-08-18T09:45:24.811Z,26.93
2017-08-18T09:48:10.594Z,25.90
2017-08-18T09:50:56.420Z,21.20
2017-08-18T09:53:42.311Z,23.23
2017-08-18T09:56:28.183Z,24.30
2017-08-18T09:59:11.878Z,23.70
2017-08-18T10:01:39.965Z,26.77
2017-08-18T10:04:08.048Z,25.90
2017-08-18T10:06:38.470Z,25.53
2017-08-18T10:09:06.581Z,23.90
2017-08-18T10:11:34.689Z,24.40
2017-08-18T10:14:02.784Z,26.90
2017-08-18T10:16:30.895Z,25.47
2017-08-18T10:19:00.984Z,22.60
2017-08-18T10:21:29.094Z,19.37
2017-08-18T10:23:57.186Z,20.50
2017-08-18T10:26:25.295Z,16.80
2017-08-18T10:28:53.416Z,20.10
2017-08-18T10:31:22.303Z,17.03
2017-08-18T10:33:50.380Z,19.43
2017-08-18T10:36:18.488Z,20.63
2017-08-18T10:38:46.570Z,24.23
2017-08-18T10:41:14.682Z,24.20
2017-08-18T10:43:42.789Z,20.50
2017-08-18T10:46:10.884Z,20.60
2017-08-18T10:48:39.006Z,22.70
2017-08-18T10:51:07.106Z,29.10
2017-08-18T10:53:35.983Z,24.37
2017-08-18T10:56:06.988Z,26.07
2017-08-18T10:58:35.168Z,31.30
2017-08-18T11:01:03.267Z,24.00
2017-08-18T11:03:32.106Z,22.60
2017-08-18T11:06:00.228Z,22.10
2017-08-18T11:08:28.318Z,25.17
2017-08-18T11:10:57.179Z,24.47
2017-08-18T11:13:25.320Z,26.83
2017-08-18T11:15:53.417Z,26.53
2017-08-18T11:18:21.539Z,25.80
2017-08-18T11:20:49.631Z,24.63
2017-08-18T11:23:17.723Z,27.07
2017-08-18T11:25:45.831Z,23.27
2017-08-18T11:28:14.711Z,26.80
2017-08-18T11:30:42.812Z,28.00
2017-08-18T11:33:10.926Z,29.47
2017-08-18T11:35:39.050Z,30.20
2017-08-18T11:38:07.178Z,29.10
2017-08-18T11:40:35.251Z,33.33
2017-08-18T11:43:03.376Z,34.80
2017-08-18T11:45:31.453Z,38.33
2017-08-18T11:47:59.559Z,40.30
2017-08-18T11:50:27.646Z,31.87
2017-08-18T11:52:55.743Z,38.70
2017-08-18T11:55:23.839Z,40.13
2017-08-18T11:57:51.923Z,39.10
2017-08-18T12:00:20.015Z,32.70
2017-08-18T12:02:48.111Z,34.00
2017-08-18T12:05:17.147Z,30.70
2017-08-18T12:07:45.262Z,31.83
2017-08-18T12:10:13.352Z,31.13
2017-08-18T12:12:41.470Z,31.33
2017-08-18T12:15:09.559Z,36.00
2017-08-18T12:17:37.671Z,30.07
2017-08-18T12:20:05.780Z,21.67
2017-08-18T12:22:33.878Z,17.70
2017-08-18T12:25:01.984Z,22.70
2017-08-18T12:27:30.072Z,16.20
2017-08-18T12:29:58.179Z,16.87
2017-08-18T12:32:26.281Z,16.40
2017-08-18T12:34:54.379Z,31.77
2017-08-18T12:37:22.475Z,22.17
2017-08-18T12:39:50.578Z,16.60
2017-08-18T12:42:18.680Z,17.70
2017-08-18T12:44:46.807Z,19.40
2017-08-18T12:47:14.946Z,14.03
2017-08-18T12:49:43.023Z,14.83
2017-08-18T12:52:11.120Z,12.10
2017-08-18T12:54:40.144Z,17.83
2017-08-18T12:57:08.219Z,9.70
2017-08-18T12:59:36.308Z,8.83
2017-08-18T13:02:04.385Z,12.40
2017-08-18T13:04:32.489Z,11.47
2017-08-18T13:07:00.603Z,10.87
2017-08-18T13:09:28.683Z,8.30
2017-08-18T13:11:56.807Z,16.17
2017-08-18T13:14:25.683Z,10.63
2017-08-18T13:16:53.786Z,10.07
2017-08-18T13:19:22.851Z,10.60
2017-08-18T13:21:50.985Z,12.60
2017-08-18T13:24:19.072Z,8.27
2017-08-18T13:26:47.204Z,11.17
2017-08-18T13:29:15.285Z,7.00
2017-08-18T13:31:43.384Z,10.20
2017-08-18T13:34:11.454Z,7.70
2017-08-18T13:36:39.580Z,8.63
2017-08-18T13:39:08.428Z,7.67
2017-08-18T13:41:36.516Z,7.63
2017-08-18T13:44:04.595Z,9.40
2017-08-18T13:46:32.697Z,7.77
2017-08-18T13:49:00.813Z,8.30
2017-08-18T13:51:28.899Z,8.97
2017-08-18T13:53:57.095Z,8.43
2017-08-18T13:56:25.961Z,9.83
2017-08-18T13:58:54.068Z,9.00
2017-08-18T14:01:22.173Z,12.27
2017-08-18T14:03:52.287Z,10.60
2017-08-18T14:06:20.411Z,11.13
2017-08-18T14:08:48.505Z,9.70
2017-08-18T14:11:16.612Z,13.50
2017-08-18T14:13:44.708Z,11.73
2017-08-18T14:16:12.793Z,10.50
2017-08-18T14:18:40.902Z,12.17
2017-08-18T14:21:08.991Z,9.43
2017-08-18T14:23:37.095Z,9.07
2017-08-18T14:29:10.323Z,6.70
2017-08-18T14:31:38.427Z,6.47
2017-08-18T14:34:06.514Z,9.13
2017-08-18T14:36:34.591Z,6.47
2017-08-18T14:39:02.706Z,5.40
2017-08-18T14:41:30.807Z,4.50
2017-08-18T14:43:59.678Z,7.30
2017-08-18T14:46:27.777Z,12.40
2017-08-18T14:48:56.618Z,6.10
2017-08-18T14:51:24.719Z,5.93
2017-08-18T14:53:52.827Z,5.73
2017-08-18T14:56:20.931Z,5.43
2017-08-18T14:58:49.020Z,6.43
2017-08-18T15:01:19.127Z,5.67
2017-08-18T15:03:47.203Z,6.00
2017-08-18T15:06:15.298Z,7.37
2017-08-18T15:08:44.313Z,4.60
2017-08-18T15:11:13.159Z,6.10
2017-08-18T15:13:41.239Z,6.67
2017-08-18T15:16:09.327Z,6.17
2017-08-18T15:18:38.203Z,5.07
2017-08-18T15:21:06.295Z,10.20
2017-08-18T15:23:36.267Z,8.77
2017-08-18T15:26:04.355Z,6.07
2017-08-18T15:28:32.447Z,6.30
2017-08-18T15:31:00.598Z,5.90
2017-08-18T15:33:30.626Z,4.77
2017-08-18T15:35:58.708Z,10.23
2017-08-18T15:38:26.821Z,4.30
2017-08-18T15:40:54.892Z,8.90
2017-08-18T15:43:23.027Z,5.90
2017-08-18T15:45:51.115Z,7.87
2017-08-18T15:48:19.307Z,7.80
2017-08-18T15:50:47.401Z,8.63
2017-08-18T15:53:15.478Z,6.43
2017-08-18T15:55:43.608Z,9.00
2017-08-18T15:58:11.683Z,6.23
2017-08-18T16:00:39.792Z,5.93
2017-08-18T16:03:07.897Z,5.20
2017-08-18T16:08:26.502Z,8.97
2017-08-18T16:10:54.666Z,7.93
2017-08-18T16:13:23.148Z,6.57
2017-08-18T16:15:51.340Z,5.47
2017-08-18T16:18:19.611Z,5.50
2017-08-18T16:20:47.738Z,5.00
2017-08-18T16:23:15.900Z,6.60
2017-08-18T16:25:44.957Z,5.73
2017-08-18T16:28:15.124Z,5.90
2017-08-18T16:30:43.330Z,7.03
2017-08-18T16:33:12.205Z,4.47
2017-08-18T16:35:40.284Z,7.43
2017-08-18T16:38:08.376Z,7.17
2017-08-18T16:40:36.507Z,6.37
2017-08-18T16:43:04.738Z,10.30
2017-08-18T16:45:35.581Z,4.13
2017-08-18T16:48:03.932Z,5.10
2017-08-18T16:50:32.143Z,5.50
2017-08-18T16:53:00.500Z,4.70
2017-08-18T16:55:28.659Z,7.97
2017-08-18T16:57:56.840Z,6.40
2017-08-18T17:00:25.007Z,8.53
2017-08-18T17:02:53.116Z,8.83
2017-08-18T17:05:21.215Z,6.90
2017-08-18T17:07:49.374Z,7.83
2017-08-18T17:10:17.706Z,7.43
2017-08-18T17:12:47.596Z,6.27
2017-08-18T17:15:15.764Z,5.53
2017-08-18T17:17:45.729Z,6.73
2017-08-18T17:20:13.924Z,6.00
2017-08-18T17:22:55.365Z,7.03
2017-08-18T17:25:23.556Z,5.80
2017-08-18T17:27:51.708Z,5.80
2017-08-18T17:30:19.825Z,5.53
2017-08-18T17:32:48.003Z,10.70
2017-08-18T17:35:17.122Z,4.80
2017-08-18T17:37:52.081Z,4.93
2017-08-18T17:40:20.827Z,6.57
2017-08-18T17:42:49.067Z,8.60
2017-08-18T17:45:17.995Z,6.53
2017-08-18T17:47:46.124Z,7.00
2017-08-18T17:50:14.721Z,5.20
2017-08-18T17:52:43.666Z,12.63
2017-08-18T17:55:11.780Z,5.37
2017-08-18T17:57:39.902Z,6.60
2017-08-18T18:00:07.988Z,6.80
2017-08-18T18:02:36.076Z,7.60
2017-08-18T18:05:04.180Z,5.93
2017-08-18T18:07:32.255Z,7.60
2017-08-18T18:10:00.343Z,6.40
2017-08-18T18:12:28.444Z,6.30
2017-08-18T18:14:56.538Z,6.90
2017-08-18T18:17:24.646Z,5.37
2017-08-18T18:19:52.759Z,7.10
2017-08-18T18:22:20.871Z,13.90
2017-08-18T18:24:49.752Z,13.67
2017-08-18T18:27:18.600Z,10.10
2017-08-18T18:29:46.719Z,15.33
2017-08-18T18:32:14.795Z,10.40
2017-08-18T18:34:42.911Z,9.83
2017-08-18T18:37:11.023Z,13.97
2017-08-18T18:39:39.100Z,7.20
2017-08-18T18:42:07.947Z,13.50
2017-08-18T18:44:38.987Z,7.47
2017-08-18T18:47:07.059Z,8.07
2017-08-18T18:49:35.147Z,8.23
2017-08-18T18:52:03.256Z,11.00
2017-08-18T18:54:33.612Z,8.27
2017-08-18T18:57:01.699Z,13.00
2017-08-18T18:59:30.710Z,9.77
2017-08-18T19:01:58.823Z,11.63
2017-08-18T19:04:27.815Z,10.70
2017-08-18T19:06:55.907Z,8.37
2017-08-18T19:09:24.003Z,14.63
2017-08-18T19:11:52.197Z,9.70
2017-08-18T19:14:20.295Z,9.03
2017-08-18T19:16:48.391Z,9.00
2017-08-18T19:19:16.482Z,8.70
2017-08-18T19:21:44.567Z,7.60
2017-08-18T19:24:12.672Z,6.90
2017-08-18T19:26:40.788Z,7.00
2017-08-18T19:29:09.532Z,6.17
2017-08-18T19:31:37.632Z,8.77
2017-08-18T19:34:06.480Z,7.73
2017-08-18T19:36:34.560Z,7.63
2017-08-18T19:39:04.580Z,11.07
2017-08-18T19:41:32.679Z,7.97
2017-08-18T19:44:00.780Z,5.70
2017-08-18T19:46:29.729Z,6.80
2017-08-18T19:48:57.817Z,11.17
2017-08-18T19:51:26.916Z,10.90
2017-08-18T19:53:56.700Z,6.63
2017-08-18T19:56:24.791Z,5.73
2017-08-18T19:58:53.903Z,6.83
2017-08-18T20:01:22.027Z,5.20
2017-08-18T20:03:50.112Z,6.30
2017-08-18T20:06:18.196Z,5.77
2017-08-18T20:08:46.302Z,7.60
2017-08-18T20:11:14.392Z,4.23
2017-08-18T20:13:42.498Z,3.37
2017-08-18T20:16:14.261Z,5.70
2017-08-18T20:18:43.265Z,6.57
2017-08-18T20:21:11.348Z,4.80
2017-08-18T20:23:40.225Z,7.50
2017-08-18T20:26:11.485Z,4.23
2017-08-18T20:28:39.578Z,3.17
2017-08-18T20:31:07.712Z,6.23
2017-08-18T20:33:39.141Z,9.90
2017-08-18T20:36:07.230Z,4.40
2017-08-18T20:38:35.343Z,8.17
2017-08-18T20:41:03.456Z,8.30
2017-08-18T20:43:31.571Z,5.77
2017-08-18T20:46:00.423Z,5.90
2017-08-18T20:48:31.875Z,7.63
2017-08-18T20:51:03.768Z,10.13
2017-08-18T20:53:31.925Z,6.40
2017-08-18T20:56:03.614Z,4.97
2017-08-18T20:58:31.729Z,5.90
2017-08-18T21:00:59.882Z,9.90
2017-08-18T21:03:27.975Z,11.10
2017-08-18T21:05:56.072Z,7.17
2017-08-18T21:08:24.185Z,13.83
2017-08-18T21:10:52.508Z,9.80
2017-08-18T21:13:20.607Z,8.70
2017-08-18T21:15:49.455Z,14.30
2017-08-18T21:18:17.567Z,7.13
2017-08-18T21:20:45.650Z,10.90
2017-08-18T21:23:14.503Z,10.17
2017-08-18T21:25:42.605Z,8.57
2017-08-18T21:28:11.460Z,7.77
2017-08-18T21:30:39.599Z,5.07
2017-08-18T21:33:07.713Z,6.57
2017-08-18T21:35:35.807Z,8.93
2017-08-18T21:38:03.890Z,6.20
2017-08-18T21:40:31.986Z,14.90
2017-08-18T21:43:00.063Z,7.73
2017-08-18T21:45:28.176Z,7.93
2017-08-18T21:47:56.253Z,8.97
2017-08-18T21:50:24.344Z,6.77
2017-08-18T21:52:52.432Z,6.43
2017-08-18T21:55:20.514Z,8.97
2017-08-18T21:57:49.384Z,10.53
2017-08-18T22:00:17.467Z,23.33
2017-08-18T22:02:45.567Z,14.07
2017-08-18T22:05:13.682Z,10.30
2017-08-18T22:07:41.760Z,8.30
2017-08-18T22:10:09.890Z,8.50
2017-08-18T22:12:39.777Z,12.30
2017-08-18T22:15:07.899Z,17.83
2017-08-18T22:17:36.022Z,9.43
2017-08-18T22:20:04.871Z,16.67
2017-08-18T22:22:33.003Z,14.70
2017-08-18T22:25:01.083Z,8.10
2017-08-18T22:27:29.183Z,7.90
2017-08-18T22:29:57.284Z,11.67
2017-08-18T22:32:25.363Z,12.47
2017-08-18T22:34:53.471Z,16.77
2017-08-18T22:37:21.556Z,7.13
2017-08-18T22:39:49.666Z,9.63
2017-08-18T22:42:17.743Z,9.13
2017-08-18T22:44:45.845Z,15.33
2017-08-18T22:47:13.936Z,9.17
2017-08-18T22:49:42.040Z,7.07
2017-08-18T22:52:10.134Z,19.90
2017-08-18T22:54:38.304Z,17.23
2017-08-18T22:57:06.415Z,7.17
2017-08-18T22:59:34.502Z,11.60
2017-08-18T23:02:02.614Z,9.00
2017-08-18T23:04:30.696Z,9.50
2017-08-18T23:06:58.795Z,7.63
2017-08-18T23:09:26.883Z,10.60
2017-08-18T23:11:55.104Z,14.43
2017-08-18T23:14:23.265Z,10.90
2017-08-18T23:16:51.359Z,11.33
2017-08-18T23:19:19.455Z,9.03
2017-08-18T23:21:47.566Z,12.47
2017-08-18T23:24:15.675Z,13.83
2017-08-18T23:26:43.775Z,8.90
2017-08-18T23:29:11.851Z,24.23
2017-08-18T23:31:39.967Z,13.47
2017-08-18T23:34:08.043Z,15.50
2017-08-18T23:36:36.152Z,19.10
2017-08-18T23:39:04.241Z,9.20
2017-08-18T23:41:32.335Z,16.43
2017-08-18T23:44:00.415Z,16.63
2017-08-18T23:46:28.500Z,11.00
2017-08-18T23:48:56.604Z,8.37
2017-08-18T23:51:24.688Z,11.80
2017-08-18T23:53:52.769Z,17.60
2017-08-18T23:56:20.870Z,17.90
2017-08-18T23:58:49.002Z,10.30
